Time;durP1;ratioP1;P1;durP2;ratioP2;P2;SDS_P1;SDS_P2;PMS_P1;PMS_P2;Temp;Humidity;BMP_temperature;BMP_pressure;BME280_temperature;BME280_humidity;BME280_pressure;Samples;Min_cycle;Max_cycle;Signal;HPM_P1;HPM_P2
2023/08/03 00:01:52;;;;;;;72.97;69.70;;;;;;;21.53;55.00;98889.06;4974244;28;20037;-74
2023/08/03 00:04:17;;;;;;;72.97;69.40;;;;;;;21.52;54.88;98890.25;4985541;28;20074;-81
2023/08/03 00:06:44;;;;;;;71.20;67.97;;;;;;;21.51;55.06;98896.88;4992432;28;20061;-74
2023/08/03 00:09:09;;;;;;;73.72;70.25;;;;;;;21.49;55.35;98892.91;4989499;28;20030;-74
2023/08/03 00:11:35;;;;;;;70.63;67.13;;;;;;;21.47;55.56;98900.69;4990044;28;20038;-74
2023/08/03 00:14:00;;;;;;;75.65;72.20;;;;;;;21.45;55.39;98912.06;4978775;28;20054;-74
2023/08/03 00:16:26;;;;;;;74.35;70.82;;;;;;;21.43;55.15;98902.59;4984931;28;20542;-74
2023/08/03 00:18:51;;;;;;;71.57;68.07;;;;;;;21.43;55.38;98905.34;4990088;28;20049;-75
2023/08/03 00:21:17;;;;;;;71.75;68.30;;;;;;;21.41;55.17;98908.44;4986752;28;20430;-74
2023/08/03 00:23:42;;;;;;;69.20;66.05;;;;;;;21.39;55.47;98908.81;4974109;28;20054;-74
2023/08/03 00:26:08;;;;;;;72.30;69.00;;;;;;;21.38;55.23;98909.94;4987827;28;20035;-73
2023/08/03 00:28:33;;;;;;;70.03;66.63;;;;;;;21.36;55.52;98909.47;4989854;28;20027;-74
2023/08/03 00:30:59;;;;;;;70.07;66.78;;;;;;;21.35;55.47;98920.84;4990794;28;20475;-74
2023/08/03 00:33:24;;;;;;;73.28;69.55;;;;;;;21.33;55.65;98940.41;4992271;28;20030;-73
2023/08/03 00:35:50;;;;;;;68.75;65.07;;;;;;;21.33;55.39;98956.88;4990711;28;20034;-78
2023/08/03 00:38:15;;;;;;;67.72;64.28;;;;;;;21.32;55.40;98940.78;4989429;28;20023;-75
2023/08/03 00:40:41;;;;;;;73.78;70.38;;;;;;;21.31;55.76;98944.66;4989845;28;20070;-74
2023/08/03 00:43:07;;;;;;;67.95;64.75;;;;;;;21.29;55.68;98953.28;4984417;28;20030;-74
2023/08/03 00:45:32;;;;;;;67.72;64.53;;;;;;;21.28;55.83;98964.63;4990154;28;20030;-76
2023/08/03 00:47:58;;;;;;;71.95;68.55;;;;;;;21.27;55.43;98960.25;4988509;28;20042;-74
2023/08/03 00:50:25;;;;;;;70.80;67.05;;;;;;;21.26;55.50;98980.66;4986785;28;20045;-78
2023/08/03 00:52:51;;;;;;;68.75;65.57;;;;;;;21.23;55.69;98979.41;4987683;28;20035;-74
2023/08/03 00:55:16;;;;;;;69.72;66.53;;;;;;;21.22;55.93;98949.56;4972660;28;20077;-74
2023/08/03 00:57:42;;;;;;;71.30;67.88;;;;;;;21.22;55.80;98946.81;4977983;28;20045;-75
2023/08/03 01:00:08;;;;;;;69.95;66.45;;;;;;;21.21;55.85;98975.44;4985905;28;20035;-73
2023/08/03 01:02:33;;;;;;;70.20;66.80;;;;;;;21.20;55.58;98965.63;4999932;28;20023;-74
2023/08/03 01:04:59;;;;;;;70.70;67.07;;;;;;;21.18;55.69;98980.47;4991686;28;20040;-74
2023/08/03 01:07:25;;;;;;;70.70;67.40;;;;;;;21.19;55.49;98981.28;4982312;28;20030;-73
2023/08/03 01:09:51;;;;;;;72.88;69.05;;;;;;;21.18;56.08;98974.97;4979642;28;20121;-74
2023/08/03 01:12:17;;;;;;;75.63;71.75;;;;;;;21.16;55.68;98990.22;4986969;28;20034;-72
2023/08/03 01:14:43;;;;;;;71.68;68.18;;;;;;;21.15;55.63;98992.19;4991759;28;20069;-73
2023/08/03 01:17:09;;;;;;;71.63;67.65;;;;;;;21.14;55.58;98998.84;4993607;28;20100;-72
2023/08/03 01:19:35;;;;;;;73.65;70.15;;;;;;;21.12;55.99;98990.16;5004951;28;20546;-72
2023/08/03 01:22:02;;;;;;;71.18;67.47;;;;;;;21.12;55.67;98997.59;4989632;28;20122;-72
2023/08/03 01:24:29;;;;;;;67.65;64.45;;;;;;;21.12;55.83;99003.09;4993006;28;20035;-73
2023/08/03 01:26:54;;;;;;;72.22;68.72;;;;;;;21.10;55.70;99008.91;5004847;28;20038;-72
2023/08/03 01:29:19;;;;;;;75.60;71.45;;;;;;;21.10;56.03;99010.88;5006224;28;20022;-73
2023/08/03 01:31:45;;;;;;;72.75;69.05;;;;;;;21.08;55.93;99011.22;4994852;28;20536;-73
2023/08/03 01:34:13;;;;;;;70.18;66.53;;;;;;;21.07;55.65;99009.63;4993567;28;20026;-72
2023/08/03 01:36:38;;;;;;;71.10;67.40;;;;;;;21.07;56.29;99019.84;5008335;28;20110;-73
2023/08/03 01:39:08;;;;;;;73.50;69.85;;;;;;;21.06;55.99;99012.72;4991591;28;20459;-73
2023/08/03 01:41:38;;;;;;;71.10;67.75;;;;;;;21.05;55.96;99011.16;4991622;28;20497;-72
2023/08/03 01:44:31;;;;;;;73.15;69.00;;;;;;;21.04;55.71;99018.59;4990996;28;20045;-73
2023/08/03 01:46:58;;;;;;;68.15;64.45;;;;;;;21.03;55.69;99016.19;4973199;28;20050;-72
2023/08/03 01:49:28;;;;;;;73.60;70.00;;;;;;;21.01;55.83;99019.28;5004082;28;20030;-72
2023/08/03 01:51:53;;;;;;;73.03;68.22;;;;;;;21.00;55.81;99028.69;4988455;28;20042;-72
2023/08/03 01:54:19;;;;;;;69.53;66.18;;;;;;;20.99;55.86;99026.28;4974800;28;20038;-71
2023/08/03 01:56:45;;;;;;;68.65;64.90;;;;;;;20.98;56.16;99028.22;4989962;28;20039;-71
2023/08/03 01:59:11;;;;;;;67.70;64.40;;;;;;;20.97;56.13;99026.66;4988068;28;20465;-72
2023/08/03 02:01:36;;;;;;;68.82;65.43;;;;;;;20.96;56.24;99014.88;4992755;28;20065;-74
2023/08/03 02:04:02;;;;;;;70.00;66.75;;;;;;;20.96;56.05;99019.53;5003883;28;20034;-72
2023/08/03 02:06:27;;;;;;;72.80;69.22;;;;;;;20.95;55.70;99023.44;4973010;28;20062;-71
2023/08/03 02:08:53;;;;;;;69.97;66.68;;;;;;;20.94;56.21;99024.59;4985183;28;20027;-72
2023/08/03 02:11:19;;;;;;;68.43;64.95;;;;;;;20.94;56.26;99021.84;4991399;28;20097;-73
2023/08/03 02:13:45;;;;;;;68.25;64.47;;;;;;;20.94;55.90;99027.34;4989826;28;20414;-73
2023/08/03 02:16:12;;;;;;;68.32;64.93;;;;;;;20.91;55.95;99014.31;4994222;28;20054;-72
2023/08/03 02:18:39;;;;;;;67.90;64.78;;;;;;;20.90;56.25;99019.03;4992359;28;20026;-74
2023/08/03 02:21:04;;;;;;;69.63;65.90;;;;;;;20.88;56.19;99007.59;4988431;28;20042;-72
2023/08/03 02:23:30;;;;;;;68.50;65.18;;;;;;;20.88;56.13;99026.00;4985983;28;20030;-72
2023/08/03 02:25:55;;;;;;;68.18;64.78;;;;;;;20.86;56.05;99009.88;4991448;28;20038;-75
2023/08/03 02:28:21;;;;;;;65.65;62.22;;;;;;;20.86;56.26;99014.59;5007962;28;20031;-76
2023/08/03 02:30:46;;;;;;;67.85;64.70;;;;;;;20.85;56.34;99016.53;4991065;28;20056;-74
2023/08/03 02:33:11;;;;;;;69.47;66.03;;;;;;;20.83;56.15;99016.09;4988700;28;20080;-73
2023/08/03 02:35:39;;;;;;;72.90;69.55;;;;;;;20.83;56.37;99007.06;4990119;28;20069;-72
2023/08/03 02:38:05;;;;;;;68.43;65.03;;;;;;;20.82;56.43;99020.00;4984704;28;20038;-73
2023/08/03 02:40:30;;;;;;;69.60;65.97;;;;;;;20.81;56.49;99014.84;4991639;28;20459;-72
2023/08/03 02:42:56;;;;;;;66.13;62.95;;;;;;;20.80;56.47;99016.00;4973538;28;20085;-73
2023/08/03 02:45:21;;;;;;;67.85;64.35;;;;;;;20.78;56.28;99008.13;4992445;28;20088;-73
2023/08/03 02:47:47;;;;;;;69.72;65.82;;;;;;;20.78;56.33;99012.81;4991943;28;20145;-74
2023/08/03 02:50:13;;;;;;;68.50;65.13;;;;;;;20.78;56.65;99023.78;4977419;28;20045;-73
2023/08/03 02:52:38;;;;;;;66.70;63.60;;;;;;;20.75;56.43;99030.78;4986475;28;20038;-73
2023/08/03 02:55:04;;;;;;;70.20;66.75;;;;;;;20.74;56.42;99038.22;4979776;28;20374;-74
2023/08/03 02:57:29;;;;;;;66.05;62.35;;;;;;;20.73;56.37;99028.38;5006172;28;20026;-74
2023/08/03 02:59:55;;;;;;;68.38;64.80;;;;;;;20.73;56.48;99039.34;4990426;28;20030;-75
2023/08/03 03:02:20;;;;;;;65.53;62.45;;;;;;;20.71;56.55;99041.69;4974552;28;20026;-74
2023/08/03 03:04:46;;;;;;;68.63;65.40;;;;;;;20.71;56.78;99044.44;5007126;28;20030;-77
2023/08/03 03:07:11;;;;;;;66.25;62.60;;;;;;;20.71;56.85;99041.69;4974168;28;20433;-72
2023/08/03 03:09:37;;;;;;;70.72;66.47;;;;;;;20.71;56.88;99043.59;4982336;28;20487;-73
2023/08/03 03:12:02;;;;;;;69.30;65.85;;;;;;;20.70;56.51;99064.75;4977024;28;20046;-73
2023/08/03 03:14:28;;;;;;;68.50;65.38;;;;;;;20.70;56.73;99063.97;4978317;28;20059;-73
2023/08/03 03:16:53;;;;;;;67.50;63.92;;;;;;;20.67;56.75;99064.69;5002985;28;20160;-72
2023/08/03 03:19:18;;;;;;;67.25;63.95;;;;;;;20.67;56.69;99081.13;4986820;28;20092;-72
2023/08/03 03:21:44;;;;;;;66.68;63.42;;;;;;;20.66;56.66;99068.56;4981654;28;20066;-71
2023/08/03 03:24:09;;;;;;;70.63;67.00;;;;;;;20.65;56.84;99070.50;4998716;28;20061;-72
2023/08/03 03:26:35;;;;;;;66.88;63.78;;;;;;;20.64;56.63;99068.91;4988386;28;20034;-72
2023/08/03 03:29:00;;;;;;;68.28;65.07;;;;;;;20.64;56.77;99079.09;4999247;28;20034;-74
2023/08/03 03:31:26;;;;;;;69.30;66.00;;;;;;;20.63;56.78;99083.78;4982329;28;20089;-74
2023/08/03 03:33:51;;;;;;;65.97;62.88;;;;;;;20.62;56.58;99095.91;4988386;28;20038;-72
2023/08/03 03:36:16;;;;;;;67.13;63.63;;;;;;;20.61;56.49;99099.78;4981384;28;20042;-72
2023/08/03 03:38:42;;;;;;;67.60;64.30;;;;;;;20.62;56.70;99103.34;4986623;28;20034;-73
2023/08/03 03:41:07;;;;;;;65.85;62.65;;;;;;;20.60;56.60;99106.41;4973031;28;20498;-73
2023/08/03 03:43:33;;;;;;;66.60;63.40;;;;;;;20.60;56.76;99122.88;4976843;28;20027;-73
2023/08/03 03:45:58;;;;;;;67.05;63.85;;;;;;;20.60;57.01;99127.56;4973276;28;20065;-73
2023/08/03 03:48:23;;;;;;;71.85;68.28;;;;;;;20.59;56.68;99135.00;4987245;28;20030;-72
2023/08/03 03:50:49;;;;;;;68.57;65.18;;;;;;;20.58;56.60;99135.34;4989451;28;20049;-73
2023/08/03 03:53:14;;;;;;;68.60;65.13;;;;;;;20.57;57.01;99142.78;4991551;28;20352;-72
2023/08/03 03:55:40;;;;;;;68.03;64.68;;;;;;;20.58;56.62;99140.84;4990295;28;20057;-73
2023/08/03 03:58:05;;;;;;;66.55;63.45;;;;;;;20.56;56.48;99143.91;5004768;28;20049;-73
2023/08/03 04:00:33;;;;;;;66.45;63.45;;;;;;;20.56;56.80;99151.34;4991617;28;20053;-73
2023/08/03 04:02:58;;;;;;;67.00;63.90;;;;;;;20.55;56.87;99142.34;4974001;28;20033;-72
2023/08/03 04:05:25;;;;;;;67.10;63.80;;;;;;;20.54;56.85;99146.22;4978683;28;20113;-72
2023/08/03 04:07:51;;;;;;;67.05;63.97;;;;;;;20.55;56.58;99166.22;4981565;28;20054;-72
2023/08/03 04:10:16;;;;;;;64.75;61.75;;;;;;;20.53;56.81;99161.84;5004696;28;20378;-72
2023/08/03 04:12:42;;;;;;;69.85;66.45;;;;;;;20.53;56.82;99169.28;4990810;28;20118;-72
2023/08/03 04:15:07;;;;;;;66.32;62.97;;;;;;;20.51;56.67;99175.13;4997199;28;20406;-72
2023/08/03 04:17:33;;;;;;;64.93;61.83;;;;;;;20.51;56.56;99174.31;4969482;28;20038;-73
2023/08/03 04:19:59;;;;;;;64.43;61.45;;;;;;;20.51;56.54;99172.38;4984385;28;20482;-72
2023/08/03 04:22:24;;;;;;;65.15;62.20;;;;;;;20.49;56.81;99171.94;4999543;28;20030;-72
2023/08/03 04:24:50;;;;;;;66.45;63.35;;;;;;;20.50;56.72;99187.22;4991295;28;20045;-72
2023/08/03 04:27:15;;;;;;;66.32;63.33;;;;;;;20.49;57.09;99184.84;4984119;28;20382;-72
2023/08/03 04:29:40;;;;;;;66.68;63.50;;;;;;;20.48;56.94;99189.50;4970987;28;20125;-73
2023/08/03 04:32:06;;;;;;;66.22;63.22;;;;;;;20.47;57.00;99190.66;4982220;28;20035;-72
2023/08/03 04:34:32;;;;;;;64.50;61.55;;;;;;;20.47;57.07;99200.84;4980940;28;20121;-73
2023/08/03 04:36:57;;;;;;;68.95;65.85;;;;;;;20.46;57.13;99204.72;4978872;28;20458;-72
2023/08/03 04:39:22;;;;;;;64.57;61.65;;;;;;;20.45;57.13;99195.69;4991862;28;20045;-72
2023/08/03 04:41:48;;;;;;;65.72;62.53;;;;;;;20.44;56.70;99204.28;5004904;28;20092;-72
2023/08/03 04:44:13;;;;;;;68.13;64.82;;;;;;;20.44;57.12;99212.53;5006934;28;20042;-71
2023/08/03 04:46:38;;;;;;;66.63;63.20;;;;;;;20.43;57.02;99214.44;4994024;28;20466;-72
2023/08/03 04:49:04;;;;;;;66.95;63.85;;;;;;;20.43;56.93;99221.88;4987097;28;20038;-73
2023/08/03 04:51:29;;;;;;;66.65;63.55;;;;;;;20.41;56.94;99211.28;4984109;28;20350;-73
2023/08/03 04:53:55;;;;;;;63.28;59.97;;;;;;;20.41;56.85;99226.91;4988985;28;20042;-73
2023/08/03 04:56:20;;;;;;;64.90;61.90;;;;;;;20.40;56.80;99228.84;4994125;28;20026;-73
2023/08/03 04:58:45;;;;;;;67.75;64.32;;;;;;;20.39;57.09;99230.00;4993765;28;20042;-74
2023/08/03 05:01:11;;;;;;;64.53;61.55;;;;;;;20.38;57.12;99236.63;4988429;28;20030;-72
2023/08/03 05:03:36;;;;;;;64.55;61.58;;;;;;;20.38;57.16;99238.56;4987580;28;20383;-74
2023/08/03 05:06:02;;;;;;;64.70;61.65;;;;;;;20.38;57.01;99250.31;4992580;28;20057;-71
2023/08/03 05:08:27;;;;;;;63.40;60.40;;;;;;;20.37;56.76;99246.00;4982929;28;20045;-73
2023/08/03 05:10:53;;;;;;;64.95;61.83;;;;;;;20.36;56.83;99258.13;5013574;28;20061;-72
2023/08/03 05:13:18;;;;;;;63.20;60.17;;;;;;;20.37;57.04;99262.44;4992044;28;20034;-73
2023/08/03 05:15:44;;;;;;;66.78;63.65;;;;;;;20.35;56.91;99261.19;4989796;28;20463;-72
2023/08/03 05:18:10;;;;;;;61.90;59.00;;;;;;;20.35;56.71;99261.19;4997803;28;20035;-71
2023/08/03 05:20:36;;;;;;;65.38;62.22;;;;;;;20.35;57.10;99266.69;4976590;28;20089;-72
2023/08/03 05:23:01;;;;;;;65.93;62.72;;;;;;;20.34;57.37;99273.31;4994651;28;20129;-72
2023/08/03 05:25:26;;;;;;;66.75;63.33;;;;;;;20.32;57.28;99279.94;4993721;28;20034;-72
2023/08/03 05:27:52;;;;;;;65.40;62.30;;;;;;;20.31;57.38;99274.81;4992358;28;20054;-72
2023/08/03 05:30:17;;;;;;;66.72;63.53;;;;;;;20.32;57.24;99288.16;4993266;28;20037;-72
2023/08/03 05:32:43;;;;;;;65.18;61.92;;;;;;;20.31;57.31;99297.53;4991609;28;20034;-72
2023/08/03 05:35:08;;;;;;;66.55;63.25;;;;;;;20.31;57.54;99296.75;4993284;28;20037;-72
2023/08/03 05:37:33;;;;;;;67.45;63.92;;;;;;;20.30;57.29;99292.38;4987041;28;20081;-71
2023/08/03 05:40:03;;;;;;;64.68;61.17;;;;;;;20.30;57.38;99303.34;4992880;28;20173;-71
2023/08/03 05:42:36;;;;;;;66.10;63.00;;;;;;;20.30;57.28;99306.09;4990760;28;20530;-72
2023/08/03 05:45:09;;;;;;;65.97;62.97;;;;;;;20.29;57.28;99304.50;4990988;28;20462;-73
2023/08/03 05:47:36;;;;;;;67.32;64.22;;;;;;;20.28;57.29;99309.16;4975894;28;20026;-73
2023/08/03 05:50:04;;;;;;;63.80;60.90;;;;;;;20.27;57.42;99315.81;4992858;28;20076;-73
2023/08/03 05:52:30;;;;;;;66.40;63.05;;;;;;;20.27;57.35;99318.56;4991778;28;20041;-72
2023/08/03 05:54:55;;;;;;;63.40;60.20;;;;;;;20.27;57.15;99318.56;4988404;28;20034;-71
2023/08/03 05:57:20;;;;;;;65.38;62.22;;;;;;;20.26;57.43;99325.19;4993120;28;20125;-71
2023/08/03 05:59:46;;;;;;;64.80;61.40;;;;;;;20.26;57.16;99338.91;4992615;28;20033;-71
2023/08/03 06:02:33;;;;;;;63.88;60.58;;;;;;;20.25;57.43;99337.28;4993039;28;20027;-71
2023/08/03 06:04:59;;;;;;;63.45;60.25;;;;;;;20.24;57.27;99338.44;4987585;28;20030;-71
2023/08/03 06:07:25;;;;;;;61.85;58.90;;;;;;;20.23;57.06;99334.06;4986208;28;20494;-72
2023/08/03 06:09:50;;;;;;;64.38;60.75;;;;;;;20.23;57.18;99347.78;4979292;28;20047;-74
2023/08/03 06:12:17;;;;;;;64.90;61.65;;;;;;;20.23;57.24;99352.47;4985558;28;20033;-75
2023/08/03 06:14:43;;;;;;;65.63;62.28;;;;;;;20.23;57.50;99357.97;4992238;28;20050;-73
2023/08/03 06:17:12;;;;;;;63.20;60.25;;;;;;;20.22;57.27;99356.38;4987941;28;20046;-71
2023/08/03 06:19:38;;;;;;;64.38;61.22;;;;;;;20.22;56.95;99353.63;4985209;28;20049;-74
2023/08/03 06:22:04;;;;;;;62.20;59.35;;;;;;;20.21;56.98;99377.50;4992135;28;20410;-73
2023/08/03 06:24:30;;;;;;;64.10;61.10;;;;;;;20.20;57.30;99370.41;4988837;28;20034;-74
2023/08/03 06:26:58;;;;;;;67.15;63.70;;;;;;;20.19;57.63;99379.00;4981570;28;20126;-72
2023/08/03 06:29:23;;;;;;;63.78;60.75;;;;;;;20.20;57.20;99380.59;4990134;28;20503;-74
2023/08/03 06:31:49;;;;;;;63.53;60.30;;;;;;;20.19;57.54;99384.47;4972133;28;20062;-74
2023/08/03 06:34:15;;;;;;;62.65;59.55;;;;;;;20.18;57.57;99385.59;4992107;28;20034;-74
2023/08/03 06:36:42;;;;;;;61.65;58.85;;;;;;;20.17;57.59;99389.50;4994554;28;20030;-73
2023/08/03 06:39:08;;;;;;;63.13;60.15;;;;;;;20.16;57.35;99391.44;4972083;28;20030;-73
2023/08/03 06:41:33;;;;;;;64.32;61.13;;;;;;;20.17;57.25;99394.97;4977220;28;20046;-72
2023/08/03 06:44:00;;;;;;;63.78;60.83;;;;;;;20.15;57.42;99398.03;4984843;28;20084;-73
2023/08/03 06:46:27;;;;;;;63.42;60.35;;;;;;;20.16;57.57;99407.06;4966732;28;20038;-75
2023/08/03 06:48:53;;;;;;;64.82;61.60;;;;;;;20.16;57.42;99404.31;4981715;28;20041;-77
2023/08/03 06:51:20;;;;;;;62.10;59.00;;;;;;;20.16;57.58;99413.38;4982023;28;20089;-72
2023/08/03 06:53:46;;;;;;;61.90;59.00;;;;;;;20.14;57.04;99412.91;5002308;28;20117;-73
2023/08/03 06:56:12;;;;;;;61.63;58.80;;;;;;;20.14;57.43;99423.88;4985685;28;20117;-74
2023/08/03 06:58:38;;;;;;;63.13;60.13;;;;;;;20.15;57.18;99424.66;4981994;28;20125;-71
2023/08/03 07:01:03;;;;;;;64.35;61.25;;;;;;;20.14;57.71;99423.88;4981694;28;20390;-74
2023/08/03 07:03:30;;;;;;;62.90;59.90;;;;;;;20.14;57.77;99423.88;4987505;28;20149;-71
2023/08/03 07:05:55;;;;;;;64.75;61.45;;;;;;;20.14;57.35;99439.53;5003630;28;20058;-73
2023/08/03 07:08:20;;;;;;;62.78;59.88;;;;;;;20.14;57.50;99445.00;4971004;28;20604;-73
2023/08/03 07:10:46;;;;;;;61.30;58.30;;;;;;;20.13;57.74;99446.13;4989187;28;20046;-73
2023/08/03 07:13:13;;;;;;;64.30;60.95;;;;;;;20.13;57.75;99457.09;4984585;28;20499;-72
2023/08/03 07:15:38;;;;;;;60.92;58.03;;;;;;;20.13;57.45;99457.88;4985489;28;20100;-71
2023/08/03 07:18:05;;;;;;;65.88;62.40;;;;;;;20.12;57.76;99464.53;4987136;28;20042;-72
2023/08/03 07:20:32;;;;;;;64.35;61.17;;;;;;;20.14;57.93;99461.47;4983873;28;20043;-73
2023/08/03 07:22:57;;;;;;;67.60;64.10;;;;;;;20.13;57.62;99465.31;4984942;28;20031;-73
2023/08/03 07:25:23;;;;;;;62.90;59.95;;;;;;;20.14;57.65;99473.22;4982918;28;20050;-73
2023/08/03 07:27:53;;;;;;;60.70;57.80;;;;;;;20.14;57.31;99478.69;4983060;28;20038;-72
2023/08/03 07:30:19;;;;;;;62.10;59.10;;;;;;;20.12;57.73;99475.50;4985506;28;20145;-72
2023/08/03 07:32:44;;;;;;;67.10;63.95;;;;;;;20.13;57.47;99485.31;4987823;28;20152;-72
2023/08/03 07:35:10;;;;;;;62.78;59.80;;;;;;;20.13;57.45;99496.28;4971694;28;20034;-73
2023/08/03 07:37:35;;;;;;;60.03;56.75;;;;;;;20.13;57.65;99495.47;4984673;28;20042;-74
2023/08/03 07:40:01;;;;;;;63.85;60.65;;;;;;;20.12;57.48;99500.16;4983602;28;20049;-73
2023/08/03 07:42:27;;;;;;;62.70;59.70;;;;;;;20.12;57.75;99502.91;4982622;28;20038;-73
2023/08/03 07:44:53;;;;;;;63.63;60.22;;;;;;;20.12;57.82;99505.66;4988180;28;20041;-74
2023/08/03 07:47:19;;;;;;;62.20;58.92;;;;;;;20.12;57.62;99516.59;4983840;28;20062;-73
2023/08/03 07:49:45;;;;;;;64.45;61.25;;;;;;;20.12;57.53;99508.38;4998351;28;20176;-73
2023/08/03 07:52:10;;;;;;;63.30;60.20;;;;;;;20.13;57.67;99522.88;4983636;28;20514;-73
2023/08/03 07:54:36;;;;;;;61.65;58.35;;;;;;;20.13;57.92;99529.16;4967391;28;20042;-72
2023/08/03 07:57:01;;;;;;;64.38;61.22;;;;;;;20.13;57.42;99525.63;4983141;28;20057;-73
2023/08/03 07:59:26;;;;;;;62.20;59.00;;;;;;;20.13;57.45;99533.84;4981556;28;20040;-71
2023/08/03 08:01:52;;;;;;;65.38;61.88;;;;;;;20.12;57.88;99535.81;4966715;28;20117;-72
2023/08/03 08:04:18;;;;;;;64.15;60.85;;;;;;;20.12;58.04;99533.06;4986846;28;20434;-71
2023/08/03 08:06:44;;;;;;;62.28;59.22;;;;;;;20.12;58.08;99541.28;4982340;28;20242;-71
2023/08/03 08:09:10;;;;;;;65.63;62.45;;;;;;;20.12;58.55;99548.72;4984910;28;21503;-71
2023/08/03 08:11:36;;;;;;;63.92;61.03;;;;;;;20.11;58.34;99558.88;4981255;28;20030;-73
2023/08/03 08:14:01;;;;;;;65.03;61.33;;;;;;;20.11;58.54;99550.66;4985274;28;20046;-72
2023/08/03 08:16:28;;;;;;;63.47;60.33;;;;;;;20.12;58.45;99568.69;4979975;28;20410;-72
2023/08/03 08:18:54;;;;;;;65.18;61.95;;;;;;;20.13;58.62;99572.22;4982267;28;20030;-73
2023/08/03 08:21:19;;;;;;;65.68;62.45;;;;;;;20.13;58.62;99573.03;4984230;28;20069;-73
2023/08/03 08:23:45;;;;;;;60.53;57.63;;;;;;;20.12;58.29;99574.19;4981950;28;20049;-73
2023/08/03 08:26:10;;;;;;;62.95;59.95;;;;;;;20.14;58.27;99582.09;4983573;28;20085;-74
2023/08/03 08:28:35;;;;;;;62.88;59.97;;;;;;;20.13;58.33;99577.72;4984682;28;20042;-72
2023/08/03 08:31:01;;;;;;;63.67;60.70;;;;;;;20.13;58.50;99586.75;4989363;28;20503;-73
2023/08/03 08:33:26;;;;;;;61.10;58.30;;;;;;;20.14;58.86;99599.31;4985470;28;20030;-75
2023/08/03 08:35:51;;;;;;;62.95;59.85;;;;;;;20.14;58.60;99607.56;4984711;28;20125;-73
2023/08/03 08:38:17;;;;;;;61.53;58.22;;;;;;;20.14;58.32;99604.00;4979362;28;20041;-73
2023/08/03 08:40:47;;;;;;;61.05;57.80;;;;;;;20.15;58.70;99616.56;4968880;28;20038;-72
2023/08/03 08:43:12;;;;;;;60.25;57.35;;;;;;;20.14;58.45;99617.72;4966726;28;20485;-72
2023/08/03 08:45:38;;;;;;;62.78;59.55;;;;;;;20.14;58.52;99623.22;4984300;28;20038;-73
2023/08/03 08:48:05;;;;;;;62.80;59.55;;;;;;;20.13;58.89;99622.38;4980540;28;20034;-73
2023/08/03 08:50:32;;;;;;;62.50;59.50;;;;;;;20.15;58.65;99627.53;4986989;28;20070;-73
2023/08/03 08:52:58;;;;;;;60.22;57.42;;;;;;;20.15;58.96;99630.28;4983519;28;20050;-72
2023/08/03 08:55:28;;;;;;;60.92;57.83;;;;;;;20.15;58.39;99641.25;4982529;28;20034;-75
2023/08/03 08:57:55;;;;;;;62.17;59.08;;;;;;;20.15;58.77;99646.72;4981561;28;20121;-72
2023/08/03 09:00:24;;;;;;;63.42;60.22;;;;;;;20.16;58.74;99648.31;4982111;28;20045;-72
2023/08/03 09:02:54;;;;;;;60.13;57.38;;;;;;;20.15;58.68;99654.97;4984555;28;20391;-73
2023/08/03 09:05:22;;;;;;;60.28;57.45;;;;;;;20.14;59.11;99667.06;4980367;28;20141;-72
2023/08/03 09:08:16;;;;;;;60.33;57.33;;;;;;;20.15;58.57;99672.19;4982308;28;20041;-72
2023/08/03 09:10:52;;;;;;;63.95;60.63;;;;;;;20.15;58.82;99674.16;4974595;28;20105;-71
2023/08/03 09:13:37;;;;;;;60.55;57.45;;;;;;;20.16;58.70;99682.06;4981390;28;20482;-72
2023/08/03 09:16:03;;;;;;;62.30;59.22;;;;;;;20.15;58.77;99687.84;4984530;28;20093;-74
2023/08/03 09:18:30;;;;;;;66.70;63.08;;;;;;;20.15;58.82;99687.84;4984564;28;20047;-71
2023/08/03 09:21:16;;;;;;;65.47;61.88;;;;;;;20.16;58.85;99708.66;4988481;28;20030;-73
2023/08/03 09:23:41;;;;;;;62.53;58.88;;;;;;;20.16;58.67;99700.41;4980066;28;20042;-74
2023/08/03 09:26:07;;;;;;;59.70;56.72;;;;;;;20.16;58.84;99712.22;4987447;28;20096;-72
2023/08/03 09:28:40;;;;;;;62.33;59.20;;;;;;;20.16;58.97;99712.22;4986999;28;20054;-71
2023/08/03 09:31:07;;;;;;;62.88;59.75;;;;;;;20.16;58.51;99714.94;4985940;28;20058;-74
2023/08/03 09:33:34;;;;;;;62.60;59.22;;;;;;;20.17;58.62;99730.25;4986249;28;20034;-73
2023/08/03 09:36:05;;;;;;;61.70;58.85;;;;;;;20.17;58.97;99726.72;4989739;28;20041;-72
2023/08/03 09:38:30;;;;;;;60.75;57.85;;;;;;;20.16;58.59;99745.13;4987259;28;20042;-74
2023/08/03 09:40:56;;;;;;;63.95;60.65;;;;;;;20.17;58.88;99733.00;4988228;28;20041;-72
2023/08/03 09:43:26;;;;;;;61.28;58.17;;;;;;;20.18;58.66;99747.50;4986217;28;20034;-73
2023/08/03 09:45:52;;;;;;;62.13;58.70;;;;;;;20.17;58.94;99748.66;4987885;28;20038;-73
2023/08/03 09:48:21;;;;;;;63.30;60.03;;;;;;;20.17;59.09;99752.19;4985129;28;20046;-71
2023/08/03 09:50:51;;;;;;;61.08;58.28;;;;;;;20.17;58.52;99754.94;4985358;28;20089;-72
2023/08/03 09:53:20;;;;;;;63.75;60.53;;;;;;;20.19;58.52;99765.59;4983036;28;20031;-73
2023/08/03 09:56:00;;;;;;;63.03;59.78;;;;;;;20.18;58.51;99762.00;4985368;28;20113;-73
2023/08/03 09:58:51;;;;;;;62.40;59.22;;;;;;;20.20;58.75;99767.97;4987056;28;20157;-74
2023/08/03 10:01:23;;;;;;;60.00;57.00;;;;;;;20.20;58.57;99765.22;4980863;28;20048;-73
2023/08/03 10:03:52;;;;;;;61.45;58.35;;;;;;;20.21;58.75;99777.81;4987464;28;20085;-73
2023/08/03 10:06:23;;;;;;;62.60;59.33;;;;;;;20.22;58.82;99773.94;4987800;28;20472;-70
2023/08/03 10:09:04;;;;;;;60.80;57.72;;;;;;;20.22;59.12;99779.41;4985611;28;20089;-72
2023/08/03 10:11:41;;;;;;;61.15;58.17;;;;;;;20.23;59.01;99782.97;4981450;28;20180;-72
2023/08/03 10:14:09;;;;;;;61.28;58.38;;;;;;;20.24;58.92;99785.38;4983558;28;20184;-72
2023/08/03 10:16:36;;;;;;;64.28;60.22;;;;;;;20.26;59.18;99787.78;4985432;28;20124;-72
2023/08/03 10:19:02;;;;;;;61.88;58.83;;;;;;;20.27;59.06;99794.88;4983014;28;20046;-72
2023/08/03 10:21:29;;;;;;;64.90;61.58;;;;;;;20.29;58.95;99792.63;4982851;28;20396;-73
2023/08/03 10:24:08;;;;;;;61.05;57.88;;;;;;;20.30;59.16;99792.28;4987090;28;20038;-72
2023/08/03 10:26:34;;;;;;;60.28;57.20;;;;;;;20.31;59.02;99795.84;4982648;28;20030;-73
2023/08/03 10:28:59;;;;;;;64.18;60.53;;;;;;;20.32;59.02;99797.44;4983561;28;20038;-72
2023/08/03 10:31:25;;;;;;;64.38;60.85;;;;;;;20.34;59.03;99811.63;4983910;28;20038;-74
2023/08/03 10:33:56;;;;;;;63.28;59.28;;;;;;;20.36;59.53;99811.28;4983867;28;20093;-72
2023/08/03 10:36:31;;;;;;;66.47;62.63;;;;;;;20.38;59.15;99812.56;4984175;28;20069;-73
2023/08/03 10:38:57;;;;;;;62.55;59.38;;;;;;;20.40;59.23;99814.97;4986055;28;20034;-72
2023/08/03 10:41:24;;;;;;;62.10;59.00;;;;;;;20.41;59.66;99819.31;4988198;28;20039;-72
2023/08/03 10:44:13;;;;;;;61.50;58.60;;;;;;;20.44;59.70;99821.44;4981409;28;20097;-73
2023/08/03 10:46:44;;;;;;;65.32;62.13;;;;;;;20.45;59.76;99821.06;4983553;28;20394;-73
2023/08/03 10:49:19;;;;;;;66.18;62.03;;;;;;;20.48;59.70;99825.09;4988541;28;20040;-73
2023/08/03 10:51:44;;;;;;;64.80;61.70;;;;;;;20.50;59.40;99831.84;4987743;28;20030;-73
2023/08/03 10:54:10;;;;;;;65.93;62.63;;;;;;;20.52;59.90;99839.75;4983509;28;20053;-73
2023/08/03 10:56:36;;;;;;;65.18;62.10;;;;;;;20.54;59.89;99845.72;4983856;28;20050;-73
2023/08/03 10:59:03;;;;;;;65.28;62.05;;;;;;;20.56;59.85;99845.41;4988029;28;20038;-73
2023/08/03 11:01:28;;;;;;;65.88;62.63;;;;;;;20.58;59.83;99857.66;4984117;28;20069;-72
2023/08/03 11:03:54;;;;;;;62.75;59.45;;;;;;;20.60;59.58;99860.88;4980988;28;20102;-72
2023/08/03 11:06:21;;;;;;;63.47;60.20;;;;;;;20.63;59.59;99867.66;4982736;28;20042;-74
2023/08/03 11:08:47;;;;;;;65.85;62.65;;;;;;;20.64;59.82;99870.06;4983017;28;20061;-73
2023/08/03 11:11:13;;;;;;;63.42;60.50;;;;;;;20.67;59.58;99880.38;4986540;28;20165;-74
2023/08/03 11:13:42;;;;;;;64.10;61.00;;;;;;;20.70;59.84;99890.69;4982900;28;20065;-72
2023/08/03 11:16:07;;;;;;;63.38;60.00;;;;;;;20.70;59.40;99887.94;4997664;28;20046;-73